Kezdőlap
METAR-TAF:

METAR-TAF

Repülőterek :

Ouarzazate, Marokkó

földrajzi szélesség: 30-56N, földrajzi hosszúság: 006-54W, magasság: 1139 m

Jelenlegi meteorológiai megfigyelések

A jelentés 19 perccel ezelõtt készült, 00:00 UTC
Különbözõ irányokból fújó szél 1 kt
Hőmérséklet 27°C
Páratartalom 13%
Légköri nyomás 1018 hPa
Látótávolság: 5000 m
Kevés felhő 4000 lábon

METAR: GMMZ 270000Z VRB01KT 5000 FEW040 27/M04 Q1018 NOSIG

Idő: 01:19 (00:19 UTC)

Előrejelzés

A jelentés 1 órával és 19 perccel ezelõtt készült, 23:00 UTC
Az előrejelzés 27-én 00 óra UTC és 28-én 06 óra UTC között érvényes
Északnyugati szél 5 kt
Látótávolság: 5000 m
Kevés felhő 4000 lábon
27-én 10 óra UTC és 27-én 19 óra UTC között ideiglenes
Délkeleti szél 14 kt széllökések: 24 kt

TAF: GMMZ 262300Z 2700/2806 32005KT 5000 FEW040 TEMPO 2710/2719 14014G24KT

Meteorológiai megfigyelések és előrejelzések több, mint 4000 repülőtéren (METAR és TAF jelentéseket).

A térképen piros és sárga pontok jelzik az elérhető meteorológiai állomásokat.

Mozgassa az egeret a pont fölött, hogy megjelenjen az állomás neve.

Azután kattintson az időjárási megfigyelések és előrejelzések megtekintéséhez.

A térkép megváltoztatása: kattintson a fekete keresztel jelölt zöld gombra ráközelítéshez, a vonallal jelölt zöld gombra távolításhoz, vagy a zöld nyilakra a szomszédos térképek eléréséhez.


METAR-TAF: